Time;durP1;ratioP1;P1;durP2;ratioP2;P2;SDS_P1;SDS_P2;PMS_P1;PMS_P2;Temp;Humidity;BMP_temperature;BMP_pressure;BME280_temperature;BME280_humidity;BME280_pressure;Samples;Min_cycle;Max_cycle;Signal;HPM_P1;HPM_P2
2021/11/20 00:01:21;;;;;;;19.23;12.45;;;;;;;4.38;74.16;93903.69;5112050;28;20023;-39
2021/11/20 00:03:47;;;;;;;19.70;13.20;;;;;;;4.29;74.44;93903.94;5112118;28;20083;-40
2021/11/20 00:06:16;;;;;;;17.45;10.63;;;;;;;4.21;74.79;93902.94;5111588;28;20032;-39
2021/11/20 00:08:41;;;;;;;17.27;10.32;;;;;;;4.28;74.78;93905.19;5112028;28;20015;-39
2021/11/20 00:11:09;;;;;;;13.70;9.05;;;;;;;4.24;74.49;93909.41;5111906;28;20499;-40
2021/11/20 00:13:35;;;;;;;22.45;10.07;;;;;;;4.23;74.58;93905.91;5111903;28;20394;-39
2021/11/20 00:16:04;;;;;;;15.27;9.68;;;;;;;4.26;74.68;93904.19;5111911;28;20024;-39
2021/11/20 00:18:31;;;;;;;17.63;10.20;;;;;;;4.38;74.29;93895.47;5111479;28;20103;-39
2021/11/20 00:20:59;;;;;;;17.48;9.55;;;;;;;4.40;74.07;93894.97;5111130;28;20028;-40
2021/11/20 00:23:28;;;;;;;16.17;10.27;;;;;;;4.38;73.84;93890.00;5106499;28;20024;-39
2021/11/20 00:25:56;;;;;;;14.65;9.40;;;;;;;4.10;73.91;93872.88;5091427;28;20398;-39
2021/11/20 00:31:13;;;;;;;9.93;8.00;;;;;;;3.95;74.84;93894.22;5091232;28;20424;-39
2021/11/20 00:33:38;;;;;;;12.50;8.65;;;;;;;3.89;74.80;93887.25;5092055;28;20024;-39
2021/11/20 00:36:05;;;;;;;17.73;10.32;;;;;;;3.91;75.20;93910.13;5093030;28;20085;-39
2021/11/20 00:38:31;;;;;;;16.42;10.20;;;;;;;3.99;75.63;93902.16;5111023;28;20099;-39
2021/11/20 00:41:03;;;;;;;15.95;8.88;;;;;;;3.60;75.81;93907.56;5111006;28;20537;-39
2021/11/20 00:43:29;;;;;;;13.18;9.75;;;;;;;3.38;76.96;93907.50;5110780;28;20114;-38
2021/11/20 00:45:55;;;;;;;19.30;10.60;;;;;;;3.25;77.74;93909.94;5092926;28;20142;-39
2021/11/20 00:48:22;;;;;;;17.60;11.82;;;;;;;3.44;77.37;93908.28;5110898;28;20080;-38
2021/11/20 00:50:53;;;;;;;20.85;13.40;;;;;;;3.52;76.16;93901.84;5111102;28;20054;-37
2021/11/20 00:53:19;;;;;;;26.20;15.25;;;;;;;3.17;77.40;93893.28;5111253;28;20032;-38
2021/11/20 00:55:45;;;;;;;21.20;14.30;;;;;;;3.06;78.00;93876.84;5111221;28;20534;-38
2021/11/20 00:58:11;;;;;;;18.02;11.73;;;;;;;3.06;78.60;93902.16;5110863;28;20031;-37
2021/11/20 01:00:50;;;;;;;17.23;10.52;;;;;;;3.27;77.77;93894.53;5110078;28;20030;-37
2021/11/20 01:03:16;;;;;;;16.95;10.60;;;;;;;3.18;77.92;93892.06;5110800;28;20031;-40
2021/11/20 01:05:42;;;;;;;17.95;10.10;;;;;;;3.27;77.27;93896.53;5110911;28;20042;-38
2021/11/20 01:08:10;;;;;;;15.25;10.00;;;;;;;3.43;76.40;93891.13;5110627;28;20055;-39
2021/11/20 01:10:40;;;;;;;14.00;8.10;;;;;;;3.52;76.27;93887.44;5110624;28;20084;-38
2021/11/20 01:13:06;;;;;;;15.18;9.85;;;;;;;3.28;76.92;93890.59;5110760;28;20032;-39
2021/11/20 01:15:46;;;;;;;16.95;9.70;;;;;;;3.30;77.63;93890.84;5092339;28;20030;-41
2021/11/20 01:18:12;;;;;;;17.65;10.30;;;;;;;3.22;77.57;93892.56;5110651;28;20023;-40
2021/11/20 01:20:38;;;;;;;15.00;9.73;;;;;;;3.17;78.01;93881.59;5110707;28;20027;-40
2021/11/20 01:23:04;;;;;;;16.02;11.15;;;;;;;2.97;78.54;93880.53;5110612;28;20023;-40
2021/11/20 01:25:29;;;;;;;16.60;11.23;;;;;;;3.12;77.73;93871.44;5110388;28;20080;-41
2021/11/20 01:27:55;;;;;;;18.08;11.27;;;;;;;3.11;77.93;93886.31;5110441;28;20053;-40
2021/11/20 01:30:21;;;;;;;17.35;10.50;;;;;;;3.03;78.79;93886.03;5110314;28;20031;-40
2021/11/20 01:32:47;;;;;;;18.30;11.48;;;;;;;2.80;79.15;93878.97;5110544;28;20020;-40
2021/11/20 01:35:13;;;;;;;39.97;20.20;;;;;;;2.85;79.69;93876.28;5110460;28;20494;-41
2021/11/20 01:37:39;;;;;;;35.05;17.20;;;;;;;2.88;80.32;93872.56;5110330;28;20492;-40
2021/11/20 01:40:08;;;;;;;27.80;12.40;;;;;;;2.90;79.81;93869.38;5110202;28;20024;-40
2021/11/20 01:42:33;;;;;;;;;;;;;;;3.07;79.45;93876.34;5110437;28;20019;-40
2021/11/20 01:45:27;;;;;;;24.15;10.95;;;;;;;3.00;79.91;93870.63;5092440;28;19907;-41
2021/11/20 01:47:57;;;;;;;16.25;10.50;;;;;;;2.99;81.19;93880.03;5110247;28;20081;-40
2021/11/20 01:50:31;;;;;;;16.10;9.15;;;;;;;3.00;81.18;93876.09;5092465;28;20028;-41
2021/11/20 01:53:09;;;;;;;20.05;11.85;;;;;;;3.13;81.20;93872.91;5110486;28;20027;-41
2021/11/20 01:55:58;;;;;;;17.25;11.13;;;;;;;3.16;81.35;93869.22;5110500;28;20425;-41
2021/11/20 01:58:39;;;;;;;16.77;11.15;;;;;;;3.28;81.77;93865.28;5110066;28;20028;-41
2021/11/20 02:01:18;;;;;;;20.05;13.63;;;;;;;3.22;80.80;93868.00;5092105;28;20077;-40
2021/11/20 02:03:50;;;;;;;22.30;14.95;;;;;;;3.42;81.58;93867.06;5089794;28;20044;-38
2021/11/20 02:06:27;;;;;;;22.88;13.10;;;;;;;3.55;81.69;93870.09;5071580;28;20038;-38
2021/11/20 02:08:59;;;;;;;18.50;12.20;;;;;;;3.51;80.47;93867.56;5071766;28;20032;-38
2021/11/20 02:11:47;;;;;;;17.13;10.85;;;;;;;3.44;80.91;93872.78;5089100;28;20569;-38
2021/11/20 02:14:15;;;;;;;21.40;11.30;;;;;;;3.55;80.50;93864.63;5093476;28;20047;-38
2021/11/20 02:16:47;;;;;;;19.65;11.02;;;;;;;3.65;80.30;93863.16;5093461;28;20115;-39
2021/11/20 02:19:18;;;;;;;16.35;10.88;;;;;;;3.68;79.71;93840.31;5093720;28;20024;-39
2021/11/20 02:21:49;;;;;;;19.10;11.40;;;;;;;3.79;79.69;93854.72;5093772;28;20052;-39
2021/11/20 02:24:15;;;;;;;18.08;10.70;;;;;;;3.66;79.52;93864.66;5075425;28;20027;-39
2021/11/20 02:26:41;;;;;;;19.58;13.38;;;;;;;3.65;80.82;93855.72;5093315;28;20123;-39
2021/11/20 02:29:09;;;;;;;21.52;13.63;;;;;;;3.61;80.86;93857.94;5093378;28;20108;-39
2021/11/20 02:31:53;;;;;;;31.17;20.08;;;;;;;3.67;81.86;93861.41;5093335;28;20036;-39
2021/11/20 02:34:21;;;;;;;18.20;11.50;;;;;;;3.77;80.25;93862.66;5075361;28;20085;-39
2021/11/20 02:36:47;;;;;;;19.90;12.40;;;;;;;3.75;80.07;93864.41;5093348;28;20493;-40
2021/11/20 02:39:19;;;;;;;27.25;15.90;;;;;;;3.70;80.82;93859.69;5093031;28;20120;-38
2021/11/20 02:41:48;;;;;;;19.40;11.52;;;;;;;3.75;80.42;93856.94;5093199;28;20036;-39
2021/11/20 02:44:14;;;;;;;19.53;12.03;;;;;;;3.79;80.48;93857.44;5108500;28;20034;-41
2021/11/20 02:46:43;;;;;;;20.42;12.07;;;;;;;3.69;80.21;93852.72;5113194;28;20843;-39
2021/11/20 02:49:09;;;;;;;18.70;12.75;;;;;;;3.78;80.31;93849.75;5113638;28;20027;-39
2021/11/20 02:51:37;;;;;;;16.65;11.48;;;;;;;3.96;80.26;93849.28;5113452;28;20586;-39
2021/11/20 02:54:17;;;;;;;17.17;12.15;;;;;;;4.01;79.48;93851.25;5113496;28;20031;-40
2021/11/20 02:56:51;;;;;;;19.25;11.95;;;;;;;4.07;79.87;93846.53;5095081;28;20111;-39
2021/11/20 02:59:17;;;;;;;26.27;16.38;;;;;;;4.19;79.16;93845.31;5094814;28;20042;-40
2021/11/20 03:01:44;;;;;;;21.55;15.18;;;;;;;4.18;79.49;93843.81;5113302;28;20023;-40
2021/11/20 03:04:12;;;;;;;23.10;15.88;;;;;;;4.16;79.90;93840.81;5113229;28;20027;-40
2021/11/20 03:06:37;;;;;;;26.80;14.05;;;;;;;4.36;79.79;93837.06;5112717;28;20023;-40
2021/11/20 03:09:05;;;;;;;20.20;14.32;;;;;;;4.37;80.23;93839.34;5112904;28;20080;-40
2021/11/20 03:11:31;;;;;;;31.33;15.43;;;;;;;4.38;79.98;93840.81;5113185;28;20412;-40
2021/11/20 03:14:04;;;;;;;22.75;15.25;;;;;;;4.34;80.31;93836.84;5113138;28;20024;-40
2021/11/20 03:16:29;;;;;;;25.50;13.65;;;;;;;4.02;80.63;93809.06;5112818;28;20024;-40
2021/11/20 03:18:55;;;;;;;24.00;14.35;;;;;;;4.33;81.00;93830.63;5112772;28;20039;-40
2021/11/20 03:21:20;;;;;;;20.73;13.25;;;;;;;4.39;80.42;93833.34;5094298;28;20024;-39
2021/11/20 03:23:49;;;;;;;20.95;13.82;;;;;;;4.38;80.57;93832.59;5112845;28;20031;-42
2021/11/20 03:26:15;;;;;;;23.10;13.93;;;;;;;4.53;80.20;93818.66;5112859;28;20035;-40
2021/11/20 03:28:40;;;;;;;21.25;14.77;;;;;;;4.58;80.25;93826.88;5112766;28;20439;-40
2021/11/20 03:31:05;;;;;;;27.95;16.63;;;;;;;4.42;80.20;93821.41;5112507;28;20024;-40
2021/11/20 03:33:31;;;;;;;20.45;14.07;;;;;;;4.44;80.96;93832.63;5112694;28;20024;-40
2021/11/20 03:35:57;;;;;;;24.35;15.38;;;;;;;4.65;80.52;93830.31;5112778;28;20647;-40
2021/11/20 03:38:22;;;;;;;26.90;15.82;;;;;;;4.63;80.70;93841.03;5112585;28;20470;-40
2021/11/20 03:40:48;;;;;;;24.58;16.90;;;;;;;4.63;81.05;93839.75;5112180;28;20053;-40
2021/11/20 03:43:15;;;;;;;27.38;15.32;;;;;;;4.67;81.10;93844.25;5111952;28;20130;-40
2021/11/20 03:45:41;;;;;;;21.90;14.25;;;;;;;4.74;81.06;93843.72;5111990;28;20047;-41
2021/11/20 03:48:08;;;;;;;22.05;14.38;;;;;;;4.80;80.39;93838.97;5112382;28;20028;-40
2021/11/20 03:50:34;;;;;;;32.63;17.90;;;;;;;4.80;80.42;93845.22;5093883;28;20072;-40
2021/11/20 03:53:02;;;;;;;25.05;16.20;;;;;;;4.85;80.40;93844.44;5112087;28;20027;-40
2021/11/20 03:55:34;;;;;;;22.88;15.50;;;;;;;4.84;80.34;93842.94;5111838;28;20497;-41
2021/11/20 03:58:00;;;;;;;21.90;14.20;;;;;;;4.86;80.16;93848.66;5111839;28;20042;-40
2021/11/20 04:00:29;;;;;;;24.10;15.10;;;;;;;4.85;80.14;93849.19;5111774;28;20115;-40
2021/11/20 04:02:55;;;;;;;20.23;14.70;;;;;;;4.81;80.67;93849.41;5111904;28;20093;-40
2021/11/20 04:05:21;;;;;;;23.80;15.50;;;;;;;4.83;80.41;93848.94;5111794;28;20047;-39
2021/11/20 04:07:47;;;;;;;21.30;14.02;;;;;;;4.76;80.58;93843.97;5112047;28;20108;-40
2021/11/20 04:10:13;;;;;;;29.77;15.32;;;;;;;4.74;80.45;93860.13;5111563;28;20094;-39
2021/11/20 04:12:40;;;;;;;39.88;19.10;;;;;;;4.74;80.59;93860.13;5111840;28;20031;-39
2021/11/20 04:15:08;;;;;;;26.23;15.07;;;;;;;4.67;80.96;93850.47;5111627;28;20115;-39
2021/11/20 04:17:34;;;;;;;135.57;64.28;;;;;;;4.71;80.59;93855.66;5111960;28;20480;-39
2021/11/20 04:20:00;;;;;;;38.30;21.23;;;;;;;4.79;80.59;93857.38;5111379;28;20059;-41
2021/11/20 04:22:25;;;;;;;44.25;23.35;;;;;;;4.95;80.32;93855.84;5111718;28;20034;-40
2021/11/20 04:24:50;;;;;;;27.70;17.00;;;;;;;4.88;80.25;93848.91;5111319;28;20114;-39
2021/11/20 04:27:16;;;;;;;22.30;16.25;;;;;;;4.87;80.47;93855.63;5111728;28;20020;-39
2021/11/20 04:29:42;;;;;;;21.92;14.05;;;;;;;4.99;80.41;93853.59;5111260;28;20020;-39
2021/11/20 04:32:08;;;;;;;21.90;16.08;;;;;;;5.07;80.22;93849.06;5111065;28;20049;-39
2021/11/20 04:34:34;;;;;;;26.05;16.20;;;;;;;5.10;80.32;93853.56;5110933;28;20148;-39
2021/11/20 04:36:59;;;;;;;21.98;14.50;;;;;;;4.95;79.92;93856.59;5111177;28;20106;-39
2021/11/20 04:39:24;;;;;;;20.90;15.20;;;;;;;5.11;79.84;93844.84;5111099;28;20023;-41
2021/11/20 04:41:50;;;;;;;22.67;14.90;;;;;;;5.23;79.22;93851.03;5111494;28;20027;-40
2021/11/20 04:44:15;;;;;;;22.88;15.45;;;;;;;5.08;79.50;93843.13;5111018;28;20027;-39
2021/11/20 04:46:41;;;;;;;22.85;15.90;;;;;;;5.20;79.24;93838.31;5092601;28;20505;-41
2021/11/20 04:49:07;;;;;;;23.13;15.60;;;;;;;5.07;79.83;93847.09;5111295;28;20160;-40
2021/11/20 04:51:32;;;;;;;21.77;15.07;;;;;;;4.92;80.46;93835.72;5110759;28;20157;-40
2021/11/20 04:53:58;;;;;;;23.13;15.45;;;;;;;4.91;80.74;93836.22;5110895;28;20027;-41
2021/11/20 04:56:26;;;;;;;21.00;14.43;;;;;;;4.79;81.41;93838.22;5110988;28;20035;-40
2021/11/20 04:58:53;;;;;;;20.70;14.57;;;;;;;4.85;81.51;93843.69;5110673;28;20084;-40
2021/11/20 05:01:20;;;;;;;22.38;15.52;;;;;;;5.02;81.05;93839.66;5110568;28;20023;-39
2021/11/20 05:03:47;;;;;;;21.88;14.40;;;;;;;5.08;80.82;93823.22;5111068;28;20055;-40
2021/11/20 05:06:13;;;;;;;22.58;14.68;;;;;;;5.20;80.79;93819.16;5111008;28;20031;-39
2021/11/20 05:08:39;;;;;;;19.90;14.65;;;;;;;5.28;80.33;93817.41;5110869;28;20725;-39
2021/11/20 05:11:06;;;;;;;23.92;15.27;;;;;;;5.02;81.03;93806.84;5110710;28;20015;-39
2021/11/20 05:13:32;;;;;;;22.60;14.55;;;;;;;5.06;81.78;93814.78;5110858;28;20030;-39
2021/11/20 05:15:57;;;;;;;26.27;16.38;;;;;;;5.15;81.52;93831.66;5110916;28;20031;-39
2021/11/20 05:18:23;;;;;;;26.95;17.20;;;;;;;5.14;82.37;93838.38;5110471;28;20054;-39
2021/11/20 05:20:50;;;;;;;32.38;19.05;;;;;;;5.25;81.84;93832.84;5110497;28;20044;-39
2021/11/20 05:23:16;;;;;;;45.17;30.25;;;;;;;5.23;81.77;93818.16;5110825;28;20050;-39
2021/11/20 05:25:42;;;;;;;33.53;21.40;;;;;;;5.33;81.76;93830.31;5110693;28;20477;-40
2021/11/20 05:28:09;;;;;;;25.60;16.40;;;;;;;5.35;81.96;93830.53;5110441;28;20023;-39
2021/11/20 05:30:38;;;;;;;30.75;16.52;;;;;;;5.46;81.79;93855.13;5110670;28;20058;-39
2021/11/20 05:33:12;;;;;;;30.65;19.17;;;;;;;5.55;81.07;93871.28;5110353;28;20098;-39
2021/11/20 05:35:37;;;;;;;25.23;17.02;;;;;;;5.52;81.49;93863.34;5103301;28;20046;-39
2021/11/20 05:38:04;;;;;;;20.75;15.10;;;;;;;5.53;81.58;93860.09;5095659;28;20055;-38
2021/11/20 05:40:29;;;;;;;29.15;19.92;;;;;;;5.50;81.58;93861.09;5090011;28;20020;-39
2021/11/20 05:42:58;;;;;;;28.45;21.08;;;;;;;5.60;81.83;93858.81;5093128;28;20111;-39
2021/11/20 05:45:26;;;;;;;31.13;18.85;;;;;;;5.60;81.83;93854.06;5106149;28;20034;-39
2021/11/20 05:47:52;;;;;;;27.40;18.63;;;;;;;5.74;81.46;93863.94;5101966;28;20085;-38
2021/11/20 05:50:20;;;;;;;29.67;17.15;;;;;;;5.72;81.18;93863.69;5107076;28;20478;-39
2021/11/20 05:52:48;;;;;;;42.00;23.92;;;;;;;5.76;81.33;93860.72;5104765;28;20027;-39
2021/11/20 05:55:14;;;;;;;51.63;32.55;;;;;;;5.75;81.58;93862.69;5114362;28;20451;-39
2021/11/20 05:57:40;;;;;;;26.48;19.50;;;;;;;5.77;81.43;93865.69;5114515;28;20416;-39
2021/11/20 06:00:12;;;;;;;40.53;25.15;;;;;;;5.84;81.18;93862.44;5114157;28;20027;-39
2021/11/20 06:02:38;;;;;;;37.90;23.45;;;;;;;5.75;81.48;93870.16;5114418;28;20033;-39
2021/11/20 06:05:04;;;;;;;46.28;31.02;;;;;;;5.71;81.53;93864.97;5114126;28;20027;-38
2021/11/20 06:07:30;;;;;;;35.25;20.83;;;;;;;5.73;81.44;93867.94;5114045;28;20035;-38
2021/11/20 06:09:56;;;;;;;25.90;17.90;;;;;;;5.72;81.80;93855.47;5113818;28;20020;-38
2021/11/20 06:12:22;;;;;;;45.10;20.75;;;;;;;5.66;81.83;93863.00;5113537;28;20076;-38
2021/11/20 06:14:48;;;;;;;26.27;17.17;;;;;;;5.73;81.67;93867.94;5113744;28;20031;-39
2021/11/20 06:17:13;;;;;;;20.63;14.77;;;;;;;5.84;81.25;93875.38;5113805;28;20028;-40
2021/11/20 06:19:39;;;;;;;32.38;19.20;;;;;;;5.86;81.20;93870.88;5113389;28;20642;-39
2021/11/20 06:22:04;;;;;;;34.40;20.20;;;;;;;5.87;80.94;93879.81;5110548;28;20023;-41
2021/11/20 06:24:30;;;;;;;34.92;19.65;;;;;;;5.80;81.25;93881.09;5113306;28;20060;-40
2021/11/20 06:26:55;;;;;;;34.13;19.15;;;;;;;5.91;80.84;93875.56;5113602;28;20015;-40
2021/11/20 06:29:22;;;;;;;34.47;21.85;;;;;;;5.83;81.40;93876.59;5113587;28;20016;-39
2021/11/20 06:31:48;;;;;;;36.50;20.83;;;;;;;5.91;81.40;93880.31;5113206;28;20526;-38
2021/11/20 06:34:15;;;;;;;32.42;21.55;;;;;;;5.83;81.07;93879.31;5113295;28;20446;-38
2021/11/20 06:36:42;;;;;;;41.95;28.13;;;;;;;5.89;81.15;93872.59;5113175;28;20032;-39
2021/11/20 06:39:08;;;;;;;36.17;22.08;;;;;;;6.11;80.08;93871.69;5113175;28;20015;-39
2021/11/20 06:41:33;;;;;;;23.80;17.30;;;;;;;6.16;79.54;93868.19;5113063;28;20473;-38
2021/11/20 06:43:59;;;;;;;30.00;19.10;;;;;;;6.16;79.57;93859.94;5112978;28;20027;-39
2021/11/20 06:46:24;;;;;;;28.65;18.23;;;;;;;6.21;79.41;93869.38;5113275;28;20051;-39
2021/11/20 06:48:50;;;;;;;26.10;17.45;;;;;;;6.07;79.88;93866.50;5113331;28;20023;-38
2021/11/20 06:51:18;;;;;;;30.40;18.90;;;;;;;6.09;80.03;93866.72;5113450;28;20043;-38
2021/11/20 06:53:44;;;;;;;25.38;17.15;;;;;;;6.10;79.62;93860.00;5108549;28;20023;-38
2021/11/20 06:56:15;;;;;;;32.55;17.73;;;;;;;6.05;80.41;93866.25;5113451;28;20022;-38
2021/11/20 06:58:53;;;;;;;33.00;21.02;;;;;;;6.11;80.33;93866.22;5112501;28;20508;-38
2021/11/20 07:01:21;;;;;;;22.75;16.55;;;;;;;6.09;80.36;93869.47;5112936;28;20074;-38
2021/11/20 07:03:50;;;;;;;30.35;19.00;;;;;;;6.04;80.68;93862.03;5113428;28;20051;-38
2021/11/20 07:06:20;;;;;;;23.38;15.35;;;;;;;6.13;80.28;93862.97;5112840;28;20106;-38
2021/11/20 07:08:47;;;;;;;27.00;16.83;;;;;;;6.13;80.42;93858.97;5113205;28;20039;-38
2021/11/20 07:11:13;;;;;;;25.27;15.88;;;;;;;6.10;80.47;93851.78;5080722;28;20034;-38
2021/11/20 07:13:40;;;;;;;31.13;17.80;;;;;;;6.08;80.46;93845.31;5092444;28;20028;-39
2021/11/20 07:16:08;;;;;;;26.10;17.25;;;;;;;6.28;80.10;93850.38;5092411;28;20028;-38
2021/11/20 07:18:34;;;;;;;26.17;17.10;;;;;;;6.22;80.59;93849.69;5092448;28;20032;-38
2021/11/20 07:21:00;;;;;;;22.77;15.57;;;;;;;6.09;79.60;93825.63;5092548;28;20429;-39
2021/11/20 07:23:28;;;;;;;31.85;21.67;;;;;;;6.29;80.11;93862.09;5092635;28;20032;-39
2021/11/20 07:25:55;;;;;;;24.50;19.03;;;;;;;6.38;79.99;93859.78;5091506;28;20038;-40
2021/11/20 07:28:20;;;;;;;27.63;15.80;;;;;;;6.37;80.20;93858.28;5089041;28;20051;-39
2021/11/20 07:30:46;;;;;;;21.67;14.30;;;;;;;6.46;79.64;93859.94;5090226;28;20536;-39
2021/11/20 07:33:12;;;;;;;22.02;14.82;;;;;;;6.54;79.50;93856.13;5089936;28;20102;-38
2021/11/20 07:35:40;;;;;;;21.83;13.75;;;;;;;6.60;79.07;93861.59;5089700;28;20039;-38
2021/11/20 07:38:08;;;;;;;17.67;13.82;;;;;;;6.60;78.92;93862.34;5093855;28;20096;-39
2021/11/20 07:40:36;;;;;;;17.50;11.68;;;;;;;6.60;78.35;93867.06;5109556;28;20028;-39
2021/11/20 07:43:02;;;;;;;20.58;12.73;;;;;;;6.63;78.68;93857.78;5110147;28;20027;-39
2021/11/20 07:45:27;;;;;;;19.65;12.77;;;;;;;6.68;78.55;93851.53;5091596;28;20575;-38
2021/11/20 07:47:53;;;;;;;18.88;12.48;;;;;;;6.72;77.95;93851.97;5109889;28;20424;-38
2021/11/20 07:50:21;;;;;;;27.27;15.07;;;;;;;6.74;78.22;93854.94;5109559;28;20062;-38
2021/11/20 07:52:47;;;;;;;25.07;13.63;;;;;;;6.70;78.48;93852.50;5109918;28;20016;-39
2021/11/20 07:55:14;;;;;;;24.70;16.85;;;;;;;6.73;77.95;93842.50;5110229;28;20080;-39
2021/11/20 07:57:39;;;;;;;23.40;15.65;;;;;;;6.73;78.17;93842.50;5109716;28;20024;-39
2021/11/20 08:00:09;;;;;;;17.85;13.38;;;;;;;6.65;78.33;93847.06;5109491;28;20038;-39
2021/11/20 08:02:35;;;;;;;16.45;12.57;;;;;;;6.63;78.43;93860.53;5109306;28;20590;-38
2021/11/20 08:05:00;;;;;;;16.70;12.05;;;;;;;6.59;78.36;93854.59;5109567;28;20027;-38
2021/11/20 08:07:26;;;;;;;16.40;12.32;;;;;;;6.55;78.97;93862.38;5109560;28;20038;-38
2021/11/20 08:09:51;;;;;;;19.10;14.32;;;;;;;6.66;78.56;93854.03;5108775;28;20027;-37
2021/11/20 08:12:17;;;;;;;21.50;11.88;;;;;;;6.81;77.96;93854.38;5109632;28;20126;-39
2021/11/20 08:14:42;;;;;;;14.80;11.52;;;;;;;6.87;77.69;93852.31;5108947;28;20601;-40
2021/11/20 08:17:10;;;;;;;15.95;11.38;;;;;;;6.89;77.68;93855.28;5109255;28;20028;-39
2021/11/20 08:19:36;;;;;;;18.33;11.82;;;;;;;6.93;77.34;93844.78;5109342;28;20115;-39
2021/11/20 08:22:02;;;;;;;19.35;11.60;;;;;;;6.95;77.36;93847.03;5109354;28;20027;-40
2021/11/20 08:24:28;;;;;;;19.20;11.98;;;;;;;6.89;77.47;93856.03;5109386;28;20043;-39
2021/11/20 08:26:54;;;;;;;16.70;11.77;;;;;;;6.92;77.58;93854.28;5108879;28;20081;-39
2021/11/20 08:29:22;;;;;;;16.75;11.68;;;;;;;7.00;77.23;93852.44;5107644;28;20043;-41
2021/11/20 08:31:49;;;;;;;15.80;10.38;;;;;;;6.92;76.76;93845.28;5108951;28;20080;-39
2021/11/20 08:34:17;;;;;;;14.77;11.40;;;;;;;7.03;76.59;93859.66;5109140;28;20032;-40
2021/11/20 08:36:44;;;;;;;18.95;10.75;;;;;;;7.10;76.24;93861.81;5109375;28;20098;-39
2021/11/20 08:39:14;;;;;;;19.52;11.30;;;;;;;7.10;75.99;93863.81;5108641;28;20031;-39
2021/11/20 08:41:41;;;;;;;19.83;16.15;;;;;;;7.00;76.55;93866.16;5108259;28;20579;-39
2021/11/20 08:44:07;;;;;;;13.10;10.23;;;;;;;7.04;76.89;93863.16;5108443;28;20485;-39
2021/11/20 08:46:33;;;;;;;16.70;12.32;;;;;;;7.14;76.03;93865.03;5108659;28;20062;-39
2021/11/20 08:48:59;;;;;;;24.48;15.45;;;;;;;7.22;76.08;93865.16;5109244;28;20073;-39
2021/11/20 08:51:26;;;;;;;15.02;11.63;;;;;;;7.29;75.68;93876.34;5108735;28;20047;-39
2021/11/20 08:53:52;;;;;;;13.90;9.77;;;;;;;7.35;75.01;93863.28;5108603;28;20535;-40
2021/11/20 08:56:19;;;;;;;17.00;10.52;;;;;;;7.35;74.50;93859.78;5108362;28;20032;-40
2021/11/20 08:58:45;;;;;;;14.57;11.95;;;;;;;7.44;74.79;93862.16;5108355;28;20031;-40
2021/11/20 09:01:24;;;;;;;17.80;13.50;;;;;;;7.49;74.03;93866.84;5107758;28;20059;-40
2021/11/20 09:04:01;;;;;;;12.43;9.65;;;;;;;7.55;73.80;93857.28;5105393;28;20023;-40
2021/11/20 09:06:50;;;;;;;21.50;14.82;;;;;;;7.68;74.01;93855.88;5088261;28;20102;-40
2021/11/20 09:09:27;;;;;;;20.80;16.02;;;;;;;7.90;73.11;93863.81;5093040;28;20028;-40
2021/11/20 09:12:02;;;;;;;14.10;10.52;;;;;;;7.98;72.88;93857.19;5094798;28;20489;-40
2021/11/20 09:14:39;;;;;;;10.18;8.35;;;;;;;8.17;71.61;93857.91;5100930;28;20497;-40
2021/11/20 09:17:04;;;;;;;10.93;8.57;;;;;;;8.35;71.26;93848.16;5089183;28;20032;-40
2021/11/20 09:19:33;;;;;;;14.65;9.05;;;;;;;8.46;70.46;93847.22;5087797;28;20081;-39
2021/11/20 09:22:00;;;;;;;11.02;8.70;;;;;;;8.72;70.13;93859.03;5087559;28;20040;-40
2021/11/20 09:24:28;;;;;;;16.58;8.40;;;;;;;8.99;68.12;93852.28;5087708;28;20063;-40
2021/11/20 09:26:54;;;;;;;12.98;8.18;;;;;;;9.16;67.94;93857.47;5087913;28;20105;-40
2021/11/20 09:29:23;;;;;;;10.10;7.30;;;;;;;9.41;66.97;93853.25;5087241;28;20028;-41
2021/11/20 09:31:50;;;;;;;11.60;8.05;;;;;;;9.50;66.45;93849.31;5087864;28;20035;-40
2021/11/20 09:34:16;;;;;;;19.15;14.25;;;;;;;9.75;65.82;93839.50;5087917;28;20042;-40
2021/11/20 09:36:43;;;;;;;13.30;8.30;;;;;;;9.81;65.22;93842.91;5101531;28;20044;-40
2021/11/20 09:39:11;;;;;;;8.95;7.00;;;;;;;9.83;64.47;93843.13;5107971;28;20027;-39
2021/11/20 09:41:42;;;;;;;10.15;7.20;;;;;;;9.88;65.27;93851.25;5108010;28;20033;-39
2021/11/20 09:44:07;;;;;;;11.65;7.95;;;;;;;10.04;65.08;93845.91;5107820;28;20063;-40
2021/11/20 09:46:44;;;;;;;11.60;7.38;;;;;;;10.11;64.10;93843.25;5107618;28;20086;-39
2021/11/20 09:49:22;;;;;;;9.00;7.45;;;;;;;9.98;63.93;93829.50;5090407;28;20115;-39
2021/11/20 09:51:53;;;;;;;10.73;7.93;;;;;;;9.87;63.14;93824.94;5088044;28;20020;-39
2021/11/20 09:54:24;;;;;;;10.05;7.75;;;;;;;9.95;64.23;93830.53;5106363;28;20019;-41
2021/11/20 09:56:52;;;;;;;7.90;6.72;;;;;;;9.90;63.32;93834.16;5089166;28;20131;-40
2021/11/20 09:59:45;;;;;;;11.13;7.97;;;;;;;10.04;63.13;93827.34;5106518;28;20028;-39
2021/11/20 10:02:19;;;;;;;8.10;6.28;;;;;;;9.89;62.88;93829.94;5106093;28;20046;-39
2021/11/20 10:05:16;;;;;;;12.45;7.30;;;;;;;9.88;63.29;93833.97;5106237;28;20030;-40
2021/11/20 10:08:13;;;;;;;12.60;7.05;;;;;;;9.93;63.33;93833.09;5084401;28;20091;-40
2021/11/20 10:11:00;;;;;;;8.98;7.60;;;;;;;9.97;62.95;93828.00;5085217;28;20670;-40
2021/11/20 10:13:32;;;;;;;12.00;8.50;;;;;;;9.93;63.54;93816.56;5106282;28;20039;-40
2021/11/20 10:16:07;;;;;;;10.55;8.55;;;;;;;9.89;63.85;93814.13;5106323;28;20488;-40
2021/11/20 10:18:53;;;;;;;16.50;9.52;;;;;;;10.01;64.24;93811.84;5106649;28;20516;-39
2021/11/20 10:21:30;;;;;;;16.60;9.60;;;;;;;10.11;63.36;93812.91;5108193;28;20020;-39
2021/11/20 10:24:14;;;;;;;12.98;9.73;;;;;;;10.07;63.48;93815.22;5109524;28;20454;-39
2021/11/20 10:26:55;;;;;;;12.77;8.55;;;;;;;9.99;64.20;93814.41;5109888;28;20031;-39
2021/11/20 10:29:23;;;;;;;13.20;9.40;;;;;;;9.93;63.74;93803.50;5109990;28;20086;-40
2021/11/20 10:32:03;;;;;;;17.30;9.50;;;;;;;9.89;63.95;93807.88;5110080;28;20458;-40
2021/11/20 10:34:37;;;;;;;12.88;8.60;;;;;;;9.67;65.06;93786.31;5113354;28;20489;-39
2021/11/20 10:37:15;;;;;;;16.13;12.13;;;;;;;9.81;65.37;93796.75;5113926;28;20023;-39
2021/11/20 10:39:43;;;;;;;18.57;9.50;;;;;;;9.83;64.78;93794.19;5113831;28;20035;-39
2021/11/20 10:42:39;;;;;;;13.80;9.45;;;;;;;9.96;64.92;93801.69;5113613;28;20409;-40
2021/11/20 10:45:43;;;;;;;14.43;8.70;;;;;;;9.99;64.01;93797.09;5091924;28;20075;-40
2021/11/20 10:48:10;;;;;;;12.88;9.07;;;;;;;10.07;63.52;93804.19;5069511;28;20513;-40
2021/11/20 10:50:46;;;;;;;17.48;12.68;;;;;;;10.02;63.87;93807.06;5093011;28;20043;-37
2021/11/20 10:53:42;;;;;;;17.60;10.02;;;;;;;9.95;64.49;93805.72;5110951;28;20032;-40
2021/11/20 10:56:14;;;;;;;11.55;8.80;;;;;;;9.97;64.40;93799.66;5092531;28;20106;-39
2021/11/20 10:59:18;;;;;;;12.80;9.23;;;;;;;10.03;64.33;93801.00;5092941;28;20088;-40
2021/11/20 11:02:08;;;;;;;15.68;9.63;;;;;;;10.03;63.77;93798.25;5107834;28;20028;-40
2021/11/20 11:04:38;;;;;;;16.85;8.60;;;;;;;10.01;64.15;93797.31;5110631;28;20028;-40
2021/11/20 11:07:21;;;;;;;;;;;;;;;10.03;64.15;93787.22;5111494;28;20063;-41
2021/11/20 11:09:57;;;;;;;12.65;9.05;;;;;;;9.98;64.75;93779.84;5110450;28;19918;-39
2021/11/20 11:12:37;;;;;;;14.10;9.13;;;;;;;9.87;65.07;93786.31;5090296;28;20031;-39
2021/11/20 11:15:21;;;;;;;10.98;8.05;;;;;;;9.86;65.36;93787.63;5081136;28;20496;-40
2021/11/20 11:18:25;;;;;;;15.13;8.77;;;;;;;9.86;65.25;93795.88;5090393;28;20111;-39
2021/11/20 11:21:00;;;;;;;14.30;9.60;;;;;;;9.81;65.44;93794.00;5010419;28;20072;-39
2021/11/20 11:23:43;;;;;;;12.60;9.60;;;;;;;9.76;65.98;93797.63;5100125;28;20118;-39
2021/11/20 11:26:12;;;;;;;15.88;9.73;;;;;;;9.47;66.52;93776.69;5092033;28;20039;-40
2021/11/20 11:29:16;;;;;;;21.33;10.75;;;;;;;9.71;66.40;93794.97;5091432;28;20508;-39
2021/11/20 11:31:44;;;;;;;14.25;10.98;;;;;;;9.72;66.07;93802.00;4987651;28;20034;-39
2021/11/20 11:34:23;;;;;;;17.10;12.15;;;;;;;9.71;66.13;93804.00;4987593;28;20035;-40
2021/11/20 11:37:00;;;;;;;15.27;10.65;;;;;;;9.73;65.77;93806.97;5037343;28;20047;-40
2021/11/20 11:39:55;;;;;;;12.15;9.93;;;;;;;9.80;65.66;93805.56;5054747;28;20024;-40
2021/11/20 11:42:23;;;;;;;19.65;10.10;;;;;;;9.67;65.93;93806.34;5070212;28;20067;-40